sensor_id;sensor_type;location;lat;lon;timestamp;pressure;altitude;pressure_sealevel;temperature;humidity
69796;BME280;57073;45.650;9.612;2023-12-07T00:01:46;99241.88;;;1.82;58.75
69796;BME280;57073;45.650;9.612;2023-12-07T00:06:47;99241.50;;;1.85;57.31
69796;BME280;57073;45.650;9.612;2023-12-07T00:11:47;99241.06;;;1.96;56.72
69796;BME280;57073;45.650;9.612;2023-12-07T00:16:48;99249.31;;;2.01;56.09
69796;BME280;57073;45.650;9.612;2023-12-07T00:21:49;99250.25;;;2.08;55.39
69796;BME280;57073;45.650;9.612;2023-12-07T00:26:49;99257.59;;;2.06;54.63
69796;BME280;57073;45.650;9.612;2023-12-07T00:31:50;99260.53;;;2.11;53.98
69796;BME280;57073;45.650;9.612;2023-12-07T00:36:52;99268.50;;;2.11;54.76
69796;BME280;57073;45.650;9.612;2023-12-07T00:41:52;99264.34;;;1.94;56.06
69796;BME280;57073;45.650;9.612;2023-12-07T00:46:52;99258.16;;;1.78;56.06
69796;BME280;57073;45.650;9.612;2023-12-07T00:51:53;99255.13;;;1.67;57.15
69796;BME280;57073;45.650;9.612;2023-12-07T00:56:53;99254.72;;;1.55;56.88
69796;BME280;57073;45.650;9.612;2023-12-07T01:01:53;99257.63;;;1.45;56.73
69796;BME280;57073;45.650;9.612;2023-12-07T01:06:54;99255.44;;;1.49;55.97
69796;BME280;57073;45.650;9.612;2023-12-07T01:11:54;99260.16;;;1.61;55.38
69796;BME280;57073;45.650;9.612;2023-12-07T01:16:55;99261.91;;;1.69;55.43
69796;BME280;57073;45.650;9.612;2023-12-07T01:21:55;99266.09;;;1.49;57.03
69796;BME280;57073;45.650;9.612;2023-12-07T01:26:55;99268.16;;;1.38;57.56
69796;BME280;57073;45.650;9.612;2023-12-07T01:31:56;99270.91;;;1.22;56.92
69796;BME280;57073;45.650;9.612;2023-12-07T01:36:56;99269.84;;;1.31;57.39
69796;BME280;57073;45.650;9.612;2023-12-07T01:41:57;99270.28;;;1.20;57.13
69796;BME280;57073;45.650;9.612;2023-12-07T01:46:57;99272.94;;;1.20;57.80
69796;BME280;57073;45.650;9.612;2023-12-07T01:51:58;99281.63;;;1.37;56.74
69796;BME280;57073;45.650;9.612;2023-12-07T01:56:58;99270.91;;;1.22;56.69
69796;BME280;57073;45.650;9.612;2023-12-07T02:01:58;99278.25;;;1.20;57.21
69796;BME280;57073;45.650;9.612;2023-12-07T02:06:59;99283.13;;;1.31;57.42
69796;BME280;57073;45.650;9.612;2023-12-07T02:12:01;99289.28;;;1.09;57.80
69796;BME280;57073;45.650;9.612;2023-12-07T02:17:13;99287.34;;;1.26;57.02
69796;BME280;57073;45.650;9.612;2023-12-07T02:22:18;99291.47;;;1.28;56.71
69796;BME280;57073;45.650;9.612;2023-12-07T02:27:41;99280.38;;;1.25;56.50
69796;BME280;57073;45.650;9.612;2023-12-07T02:32:44;99281.78;;;1.12;57.16
69796;BME280;57073;45.650;9.612;2023-12-07T02:37:48;99280.59;;;1.15;56.83
69796;BME280;57073;45.650;9.612;2023-12-07T02:42:49;99285.56;;;1.18;56.05
69796;BME280;57073;45.650;9.612;2023-12-07T02:47:50;99279.97;;;1.36;55.10
69796;BME280;57073;45.650;9.612;2023-12-07T02:52:50;99285.41;;;1.43;54.29
69796;BME280;57073;45.650;9.612;2023-12-07T02:57:50;99282.84;;;1.49;53.45
69796;BME280;57073;45.650;9.612;2023-12-07T03:02:51;99272.34;;;1.56;52.23
69796;BME280;57073;45.650;9.612;2023-12-07T03:07:52;99269.34;;;1.59;52.51
69796;BME280;57073;45.650;9.612;2023-12-07T03:12:52;99274.94;;;1.64;51.79
69796;BME280;57073;45.650;9.612;2023-12-07T03:17:52;99275.84;;;1.71;52.37
69796;BME280;57073;45.650;9.612;2023-12-07T03:22:53;99277.63;;;1.79;52.20
69796;BME280;57073;45.650;9.612;2023-12-07T03:27:53;99286.88;;;1.83;51.80
69796;BME280;57073;45.650;9.612;2023-12-07T03:32:53;99282.91;;;1.64;51.69
69796;BME280;57073;45.650;9.612;2023-12-07T03:37:54;99291.63;;;1.73;51.20
69796;BME280;57073;45.650;9.612;2023-12-07T03:42:54;99286.69;;;1.70;50.71
69796;BME280;57073;45.650;9.612;2023-12-07T03:47:54;99297.59;;;1.75;50.72
69796;BME280;57073;45.650;9.612;2023-12-07T03:52:55;99295.19;;;1.65;50.74
69796;BME280;57073;45.650;9.612;2023-12-07T03:57:55;99300.19;;;1.60;52.02
69796;BME280;57073;45.650;9.612;2023-12-07T04:02:56;99305.34;;;1.61;51.29
69796;BME280;57073;45.650;9.612;2023-12-07T04:07:56;99310.84;;;1.60;52.06
69796;BME280;57073;45.650;9.612;2023-12-07T04:12:57;99315.41;;;1.28;53.30
69796;BME280;57073;45.650;9.612;2023-12-07T04:17:57;99320.59;;;1.45;52.03
69796;BME280;57073;45.650;9.612;2023-12-07T04:22:57;99320.66;;;1.59;51.36
69796;BME280;57073;45.650;9.612;2023-12-07T04:27:59;99326.09;;;1.66;50.79
69796;BME280;57073;45.650;9.612;2023-12-07T04:32:59;99323.34;;;1.74;50.08
69796;BME280;57073;45.650;9.612;2023-12-07T04:38:00;99335.34;;;1.70;50.07
69796;BME280;57073;45.650;9.612;2023-12-07T04:43:00;99344.44;;;1.76;48.26
69796;BME280;57073;45.650;9.612;2023-12-07T04:48:00;99330.91;;;1.86;48.49
69796;BME280;57073;45.650;9.612;2023-12-07T04:53:01;99341.91;;;1.83;48.67
69796;BME280;57073;45.650;9.612;2023-12-07T04:58:01;99336.88;;;1.88;48.88
69796;BME280;57073;45.650;9.612;2023-12-07T05:03:01;99339.56;;;1.65;48.65
69796;BME280;57073;45.650;9.612;2023-12-07T05:08:03;99344.63;;;1.74;49.37
69796;BME280;57073;45.650;9.612;2023-12-07T05:13:03;99346.59;;;1.80;49.20
69796;BME280;57073;45.650;9.612;2023-12-07T05:18:03;99344.13;;;1.94;49.38
69796;BME280;57073;45.650;9.612;2023-12-07T05:23:05;99342.41;;;2.01;49.88
69796;BME280;57073;45.650;9.612;2023-12-07T05:28:05;99346.66;;;2.10;49.03
69796;BME280;57073;45.650;9.612;2023-12-07T05:33:05;99352.97;;;2.09;48.68
69796;BME280;57073;45.650;9.612;2023-12-07T05:38:08;99357.81;;;2.06;50.06
69796;BME280;57073;45.650;9.612;2023-12-07T05:43:08;99361.78;;;2.10;49.84
69796;BME280;57073;45.650;9.612;2023-12-07T05:48:09;99353.78;;;1.95;49.79
69796;BME280;57073;45.650;9.612;2023-12-07T05:53:11;99366.81;;;2.05;49.91
69796;BME280;57073;45.650;9.612;2023-12-07T05:58:11;99364.41;;;1.95;49.62
69796;BME280;57073;45.650;9.612;2023-12-07T06:03:15;99369.09;;;1.70;50.26
69796;BME280;57073;45.650;9.612;2023-12-07T06:08:15;99387.09;;;1.59;51.05
69796;BME280;57073;45.650;9.612;2023-12-07T06:13:16;99387.91;;;1.60;50.56
69796;BME280;57073;45.650;9.612;2023-12-07T06:18:16;99395.59;;;1.55;51.67
69796;BME280;57073;45.650;9.612;2023-12-07T06:23:16;99392.75;;;1.56;49.92
69796;BME280;57073;45.650;9.612;2023-12-07T06:28:17;99403.53;;;1.63;49.40
69796;BME280;57073;45.650;9.612;2023-12-07T06:33:17;99411.91;;;1.75;49.87
69796;BME280;57073;45.650;9.612;2023-12-07T06:38:18;99411.81;;;1.68;48.72
69796;BME280;57073;45.650;9.612;2023-12-07T06:43:20;99416.94;;;1.70;48.84
69796;BME280;57073;45.650;9.612;2023-12-07T06:48:20;99431.72;;;1.72;50.01
69796;BME280;57073;45.650;9.612;2023-12-07T06:53:21;99430.59;;;1.67;50.25
69796;BME280;57073;45.650;9.612;2023-12-07T06:58:21;99447.31;;;1.75;49.08
69796;BME280;57073;45.650;9.612;2023-12-07T07:03:21;99455.06;;;1.85;48.98
69796;BME280;57073;45.650;9.612;2023-12-07T07:08:22;99456.34;;;1.89;47.72
69796;BME280;57073;45.650;9.612;2023-12-07T07:13:23;99453.94;;;2.03;48.65
69796;BME280;57073;45.650;9.612;2023-12-07T07:18:23;99455.88;;;2.32;47.75
69796;BME280;57073;45.650;9.612;2023-12-07T07:23:25;99473.50;;;2.71;47.29
69796;BME280;57073;45.650;9.612;2023-12-07T07:28:26;99486.78;;;3.09;47.09
69796;BME280;57073;45.650;9.612;2023-12-07T07:33:26;99491.28;;;3.53;44.74
69796;BME280;57073;45.650;9.612;2023-12-07T07:38:26;99489.59;;;3.67;44.21
69796;BME280;57073;45.650;9.612;2023-12-07T07:43:27;99502.06;;;3.96;44.92
69796;BME280;57073;45.650;9.612;2023-12-07T07:48:27;99516.19;;;4.33;44.60
69796;BME280;57073;45.650;9.612;2023-12-07T07:53:28;99523.03;;;4.64;45.21
69796;BME280;57073;45.650;9.612;2023-12-07T07:58:28;99524.81;;;4.78;43.77
69796;BME280;57073;45.650;9.612;2023-12-07T08:03:29;99536.66;;;4.97;43.38
69796;BME280;57073;45.650;9.612;2023-12-07T08:08:30;99548.16;;;5.26;43.44
69796;BME280;57073;45.650;9.612;2023-12-07T08:13:31;99542.25;;;5.37;43.37
69796;BME280;57073;45.650;9.612;2023-12-07T08:18:32;99550.19;;;5.46;42.97
69796;BME280;57073;45.650;9.612;2023-12-07T08:23:32;99540.25;;;5.81;42.83
69796;BME280;57073;45.650;9.612;2023-12-07T08:28:32;99554.09;;;5.91;42.11
69796;BME280;57073;45.650;9.612;2023-12-07T08:33:33;99563.91;;;6.32;41.16
69796;BME280;57073;45.650;9.612;2023-12-07T08:38:37;99562.09;;;6.53;42.19
69796;BME280;57073;45.650;9.612;2023-12-07T08:43:38;99560.03;;;6.48;40.13
69796;BME280;57073;45.650;9.612;2023-12-07T08:48:38;99554.50;;;6.63;39.84
69796;BME280;57073;45.650;9.612;2023-12-07T08:53:39;99572.84;;;6.79;40.53
69796;BME280;57073;45.650;9.612;2023-12-07T08:58:39;99573.69;;;7.00;40.78
69796;BME280;57073;45.650;9.612;2023-12-07T09:03:39;99575.53;;;7.00;39.13
69796;BME280;57073;45.650;9.612;2023-12-07T09:08:41;99579.44;;;6.77;37.96
69796;BME280;57073;45.650;9.612;2023-12-07T09:13:41;99592.22;;;6.68;39.04
69796;BME280;57073;45.650;9.612;2023-12-07T09:18:42;99590.56;;;6.54;38.05
69796;BME280;57073;45.650;9.612;2023-12-07T09:23:45;99597.72;;;6.40;38.79
69796;BME280;57073;45.650;9.612;2023-12-07T09:28:46;99595.03;;;6.40;39.67
69796;BME280;57073;45.650;9.612;2023-12-07T09:33:46;99597.19;;;6.03;37.81
69796;BME280;57073;45.650;9.612;2023-12-07T09:38:47;99606.19;;;5.89;38.43
69796;BME280;57073;45.650;9.612;2023-12-07T09:43:48;99597.31;;;5.88;38.39
69796;BME280;57073;45.650;9.612;2023-12-07T09:48:48;99592.28;;;6.07;39.07
69796;BME280;57073;45.650;9.612;2023-12-07T09:53:52;99579.94;;;6.12;39.82
69796;BME280;57073;45.650;9.612;2023-12-07T09:58:53;99583.66;;;6.18;39.30
69796;BME280;57073;45.650;9.612;2023-12-07T10:09:18;99594.41;;;6.25;40.34
69796;BME280;57073;45.650;9.612;2023-12-07T10:14:21;99594.03;;;6.41;39.42
69796;BME280;57073;45.650;9.612;2023-12-07T10:19:22;99577.31;;;6.39;38.43
69796;BME280;57073;45.650;9.612;2023-12-07T10:24:25;99580.38;;;6.29;36.68
69796;BME280;57073;45.650;9.612;2023-12-07T10:29:27;99557.28;;;6.15;36.76
69796;BME280;57073;45.650;9.612;2023-12-07T10:34:29;99544.56;;;6.37;38.42
69796;BME280;57073;45.650;9.612;2023-12-07T10:39:30;99541.06;;;6.36;37.60
69796;BME280;57073;45.650;9.612;2023-12-07T10:44:33;99539.22;;;6.44;36.79
69796;BME280;57073;45.650;9.612;2023-12-07T10:49:37;99521.72;;;6.74;37.78
69796;BME280;57073;45.650;9.612;2023-12-07T10:54:52;99500.91;;;6.76;35.70
69796;BME280;57073;45.650;9.612;2023-12-07T10:59:54;99485.63;;;6.77;36.32
69796;BME280;57073;45.650;9.612;2023-12-07T11:04:58;99487.47;;;6.96;36.65
69796;BME280;57073;45.650;9.612;2023-12-07T11:10:13;99487.69;;;7.02;36.55
69796;BME280;57073;45.650;9.612;2023-12-07T11:15:16;99481.88;;;7.11;36.25
69796;BME280;57073;45.650;9.612;2023-12-07T11:20:25;99487.22;;;7.25;36.76
69796;BME280;57073;45.650;9.612;2023-12-07T11:25:31;99474.47;;;7.07;34.44
69796;BME280;57073;45.650;9.612;2023-12-07T11:30:35;99470.53;;;7.23;36.08
69796;BME280;57073;45.650;9.612;2023-12-07T11:41:01;99475.66;;;7.24;34.88
69796;BME280;57073;45.650;9.612;2023-12-07T11:46:10;99474.84;;;7.37;35.13
69796;BME280;57073;45.650;9.612;2023-12-07T11:51:12;99468.63;;;7.43;35.47
69796;BME280;57073;45.650;9.612;2023-12-07T11:56:14;99467.41;;;7.39;34.65
69796;BME280;57073;45.650;9.612;2023-12-07T12:01:19;99468.16;;;7.53;36.74
69796;BME280;57073;45.650;9.612;2023-12-07T12:06:23;99469.16;;;7.59;36.83
69796;BME280;57073;45.650;9.612;2023-12-07T12:11:28;99464.53;;;7.34;36.29
69796;BME280;57073;45.650;9.612;2023-12-07T12:16:29;99462.72;;;7.73;37.11
69796;BME280;57073;45.650;9.612;2023-12-07T12:21:33;99461.13;;;7.59;35.43
69796;BME280;57073;45.650;9.612;2023-12-07T12:26:35;99459.50;;;7.58;36.22
69796;BME280;57073;45.650;9.612;2023-12-07T12:31:37;99469.06;;;7.85;37.15
69796;BME280;57073;45.650;9.612;2023-12-07T12:36:38;99463.00;;;7.97;36.58
69796;BME280;57073;45.650;9.612;2023-12-07T12:41:41;99463.78;;;8.04;37.43
69796;BME280;57073;45.650;9.612;2023-12-07T12:46:43;99467.72;;;8.08;37.45
69796;BME280;57073;45.650;9.612;2023-12-07T12:51:44;99453.81;;;8.11;37.83
69796;BME280;57073;45.650;9.612;2023-12-07T12:56:45;99451.59;;;8.08;37.43
69796;BME280;57073;45.650;9.612;2023-12-07T13:01:46;99451.59;;;8.08;37.41
69796;BME280;57073;45.650;9.612;2023-12-07T13:06:48;99456.19;;;8.01;36.91
69796;BME280;57073;45.650;9.612;2023-12-07T13:11:50;99451.00;;;8.06;36.59
69796;BME280;57073;45.650;9.612;2023-12-07T13:16:51;99447.47;;;8.05;36.64
69796;BME280;57073;45.650;9.612;2023-12-07T13:21:52;99453.38;;;8.21;37.53
69796;BME280;57073;45.650;9.612;2023-12-07T13:26:53;99452.63;;;8.07;36.97
69796;BME280;57073;45.650;9.612;2023-12-07T13:31:55;99452.00;;;8.05;37.39
69796;BME280;57073;45.650;9.612;2023-12-07T13:36:55;99449.75;;;8.02;37.31
69796;BME280;57073;45.650;9.612;2023-12-07T13:41:57;99448.72;;;8.03;38.50
69796;BME280;57073;45.650;9.612;2023-12-07T13:46:57;99461.47;;;8.14;39.24
69796;BME280;57073;45.650;9.612;2023-12-07T13:51:58;99450.28;;;8.17;39.26
69796;BME280;57073;45.650;9.612;2023-12-07T13:57:01;99453.75;;;8.24;39.25
69796;BME280;57073;45.650;9.612;2023-12-07T14:02:02;99469.88;;;8.24;39.54
69796;BME280;57073;45.650;9.612;2023-12-07T14:07:11;99475.66;;;8.21;39.73
69796;BME280;57073;45.650;9.612;2023-12-07T14:12:13;99473.63;;;8.17;38.94
69796;BME280;57073;45.650;9.612;2023-12-07T14:17:16;99485.41;;;8.16;39.76
69796;BME280;57073;45.650;9.612;2023-12-07T14:22:22;99472.47;;;8.06;40.43
69796;BME280;57073;45.650;9.612;2023-12-07T14:27:24;99469.34;;;8.09;40.46
69796;BME280;57073;45.650;9.612;2023-12-07T14:32:26;99461.50;;;8.07;40.92
69796;BME280;57073;45.650;9.612;2023-12-07T14:37:27;99458.66;;;8.02;41.35
69796;BME280;57073;45.650;9.612;2023-12-07T14:42:29;99469.88;;;7.86;41.11
69796;BME280;57073;45.650;9.612;2023-12-07T14:47:32;99467.25;;;7.79;42.02
69796;BME280;57073;45.650;9.612;2023-12-07T14:52:33;99475.72;;;7.69;43.02
69796;BME280;57073;45.650;9.612;2023-12-07T14:57:35;99474.78;;;7.57;44.36
69796;BME280;57073;45.650;9.612;2023-12-07T15:02:36;99473.53;;;7.53;44.47
69796;BME280;57073;45.650;9.612;2023-12-07T15:07:38;99475.66;;;7.44;45.05
69796;BME280;57073;45.650;9.612;2023-12-07T15:12:42;99461.03;;;7.33;45.57
69796;BME280;57073;45.650;9.612;2023-12-07T15:17:45;99474.06;;;7.10;46.74
69796;BME280;57073;45.650;9.612;2023-12-07T15:22:46;99467.47;;;6.86;48.50
69796;BME280;57073;45.650;9.612;2023-12-07T15:27:55;99476.59;;;6.65;49.64
69796;BME280;57073;45.650;9.612;2023-12-07T15:32:58;99470.00;;;6.54;50.63
69796;BME280;57073;45.650;9.612;2023-12-07T15:38:01;99473.69;;;6.33;51.47
69796;BME280;57073;45.650;9.612;2023-12-07T15:43:03;99476.16;;;6.21;51.96
69796;BME280;57073;45.650;9.612;2023-12-07T15:48:06;99481.28;;;6.16;52.01
69796;BME280;57073;45.650;9.612;2023-12-07T15:53:06;99487.25;;;6.05;52.37
69796;BME280;57073;45.650;9.612;2023-12-07T15:58:08;99490.91;;;5.90;52.89
69796;BME280;57073;45.650;9.612;2023-12-07T16:03:08;99494.59;;;5.89;52.02
69796;BME280;57073;45.650;9.612;2023-12-07T16:08:09;99509.56;;;5.77;52.73
69796;BME280;57073;45.650;9.612;2023-12-07T16:13:09;99527.41;;;5.56;53.87
69796;BME280;57073;45.650;9.612;2023-12-07T16:18:11;99529.84;;;5.51;53.60
69796;BME280;57073;45.650;9.612;2023-12-07T16:23:12;99531.03;;;5.42;54.53
69796;BME280;57073;45.650;9.612;2023-12-07T16:28:13;99530.38;;;5.40;54.08
69796;BME280;57073;45.650;9.612;2023-12-07T16:33:15;99528.91;;;5.37;55.23
69796;BME280;57073;45.650;9.612;2023-12-07T16:38:16;99537.13;;;5.36;55.47
69796;BME280;57073;45.650;9.612;2023-12-07T16:43:26;99538.38;;;5.40;54.39
69796;BME280;57073;45.650;9.612;2023-12-07T16:48:27;99554.75;;;5.30;55.07
69796;BME280;57073;45.650;9.612;2023-12-07T16:53:30;99554.56;;;5.25;55.21
69796;BME280;57073;45.650;9.612;2023-12-07T16:58:30;99569.66;;;5.11;56.57
69796;BME280;57073;45.650;9.612;2023-12-07T17:03:31;99565.13;;;4.83;56.62
69796;BME280;57073;45.650;9.612;2023-12-07T17:08:32;99572.00;;;4.71;57.08
69796;BME280;57073;45.650;9.612;2023-12-07T17:13:33;99585.81;;;4.75;56.70
69796;BME280;57073;45.650;9.612;2023-12-07T17:18:34;99602.59;;;4.47;57.29
69796;BME280;57073;45.650;9.612;2023-12-07T17:23:35;99593.44;;;4.35;58.25
69796;BME280;57073;45.650;9.612;2023-12-07T17:28:37;99597.63;;;4.44;57.91
69796;BME280;57073;45.650;9.612;2023-12-07T17:33:38;99601.47;;;4.41;57.93
69796;BME280;57073;45.650;9.612;2023-12-07T17:38:40;99596.28;;;4.33;58.46
69796;BME280;57073;45.650;9.612;2023-12-07T17:43:42;99597.41;;;4.24;57.95
69796;BME280;57073;45.650;9.612;2023-12-07T17:48:43;99604.25;;;4.12;59.45
69796;BME280;57073;45.650;9.612;2023-12-07T17:53:46;99622.91;;;4.12;59.36
69796;BME280;57073;45.650;9.612;2023-12-07T17:58:48;99633.69;;;4.03;59.43
69796;BME280;57073;45.650;9.612;2023-12-07T18:03:52;99636.81;;;3.92;59.19
69796;BME280;57073;45.650;9.612;2023-12-07T18:08:54;99630.56;;;3.85;59.05
69796;BME280;57073;45.650;9.612;2023-12-07T18:13:55;99635.00;;;3.78;60.17
69796;BME280;57073;45.650;9.612;2023-12-07T18:18:59;99631.69;;;3.76;60.34
69796;BME280;57073;45.650;9.612;2023-12-07T18:24:06;99629.28;;;3.81;60.23
69796;BME280;57073;45.650;9.612;2023-12-07T18:29:08;99628.03;;;3.77;60.29
69796;BME280;57073;45.650;9.612;2023-12-07T18:34:10;99623.22;;;4.02;59.74
69796;BME280;57073;45.650;9.612;2023-12-07T18:39:11;99631.50;;;3.92;59.83
69796;BME280;57073;45.650;9.612;2023-12-07T18:44:12;99641.53;;;3.75;59.12
69796;BME280;57073;45.650;9.612;2023-12-07T18:49:13;99640.88;;;3.73;60.11
69796;BME280;57073;45.650;9.612;2023-12-07T18:54:13;99651.91;;;3.55;59.49
69796;BME280;57073;45.650;9.612;2023-12-07T18:59:15;99638.75;;;3.53;59.96
69796;BME280;57073;45.650;9.612;2023-12-07T19:04:18;99655.66;;;3.46;59.80
69796;BME280;57073;45.650;9.612;2023-12-07T19:09:19;99659.97;;;3.47;60.24
69796;BME280;57073;45.650;9.612;2023-12-07T19:14:22;99676.41;;;3.36;59.56
69796;BME280;57073;45.650;9.612;2023-12-07T19:19:24;99672.28;;;3.33;59.04
69796;BME280;57073;45.650;9.612;2023-12-07T19:24:26;99680.16;;;3.26;60.28
69796;BME280;57073;45.650;9.612;2023-12-07T19:29:30;99678.63;;;3.09;60.32
69796;BME280;57073;45.650;9.612;2023-12-07T19:34:34;99688.72;;;2.90;60.37
69796;BME280;57073;45.650;9.612;2023-12-07T19:39:34;99681.38;;;2.92;59.72
69796;BME280;57073;45.650;9.612;2023-12-07T19:44:34;99672.16;;;2.80;59.22
69796;BME280;57073;45.650;9.612;2023-12-07T19:49:35;99661.44;;;2.88;57.86
69796;BME280;57073;45.650;9.612;2023-12-07T19:54:37;99662.72;;;2.92;57.22
69796;BME280;57073;45.650;9.612;2023-12-07T19:59:38;99658.91;;;2.95;56.42
69796;BME280;57073;45.650;9.612;2023-12-07T20:04:40;99665.31;;;2.86;57.67
69796;BME280;57073;45.650;9.612;2023-12-07T20:09:41;99663.66;;;3.08;57.23
69796;BME280;57073;45.650;9.612;2023-12-07T20:14:43;99664.41;;;2.93;57.44
69796;BME280;57073;45.650;9.612;2023-12-07T20:19:45;99641.09;;;2.95;57.85
69796;BME280;57073;45.650;9.612;2023-12-07T20:24:45;99647.22;;;3.04;58.94
69796;BME280;57073;45.650;9.612;2023-12-07T20:29:47;99639.50;;;3.09;59.14
69796;BME280;57073;45.650;9.612;2023-12-07T20:34:48;99633.63;;;3.14;59.07
69796;BME280;57073;45.650;9.612;2023-12-07T20:39:50;99636.13;;;3.16;58.16
69796;BME280;57073;45.650;9.612;2023-12-07T20:44:51;99644.22;;;3.22;57.03
69796;BME280;57073;45.650;9.612;2023-12-07T20:49:52;99638.50;;;3.25;56.45
69796;BME280;57073;45.650;9.612;2023-12-07T20:54:53;99627.50;;;3.28;55.10
69796;BME280;57073;45.650;9.612;2023-12-07T20:59:53;99625.47;;;3.30;54.55
69796;BME280;57073;45.650;9.612;2023-12-07T21:04:53;99605.00;;;3.31;53.63
69796;BME280;57073;45.650;9.612;2023-12-07T21:09:54;99595.44;;;3.37;53.71
69796;BME280;57073;45.650;9.612;2023-12-07T21:14:54;99585.22;;;3.25;54.25
69796;BME280;57073;45.650;9.612;2023-12-07T21:19:55;99588.03;;;3.09;52.83
69796;BME280;57073;45.650;9.612;2023-12-07T21:24:57;99581.38;;;3.28;53.42
69796;BME280;57073;45.650;9.612;2023-12-07T21:29:58;99575.81;;;3.14;51.75
69796;BME280;57073;45.650;9.612;2023-12-07T21:34:58;99577.50;;;3.30;52.50
69796;BME280;57073;45.650;9.612;2023-12-07T21:39:58;99582.47;;;3.33;52.72
69796;BME280;57073;45.650;9.612;2023-12-07T21:44:59;99591.22;;;3.27;53.50
69796;BME280;57073;45.650;9.612;2023-12-07T21:49:59;99579.97;;;3.17;53.78
69796;BME280;57073;45.650;9.612;2023-12-07T21:54:59;99581.88;;;3.08;54.58
69796;BME280;57073;45.650;9.612;2023-12-07T22:00:00;99578.69;;;3.13;53.68
69796;BME280;57073;45.650;9.612;2023-12-07T22:05:00;99571.97;;;3.17;53.03
69796;BME280;57073;45.650;9.612;2023-12-07T22:10:00;99572.44;;;3.21;53.02
69796;BME280;57073;45.650;9.612;2023-12-07T22:15:01;99572.25;;;3.07;52.43
69796;BME280;57073;45.650;9.612;2023-12-07T22:20:02;99586.75;;;3.05;52.56
69796;BME280;57073;45.650;9.612;2023-12-07T22:25:04;99585.00;;;2.97;53.72
69796;BME280;57073;45.650;9.612;2023-12-07T22:30:05;99577.28;;;2.79;54.05
69796;BME280;57073;45.650;9.612;2023-12-07T22:35:06;99581.72;;;2.64;53.79
69796;BME280;57073;45.650;9.612;2023-12-07T22:40:07;99565.94;;;2.62;54.29
69796;BME280;57073;45.650;9.612;2023-12-07T22:45:08;99577.47;;;2.54;54.18
69796;BME280;57073;45.650;9.612;2023-12-07T22:50:09;99577.53;;;2.46;54.21
69796;BME280;57073;45.650;9.612;2023-12-07T22:55:09;99581.09;;;2.38;54.43
69796;BME280;57073;45.650;9.612;2023-12-07T23:00:10;99596.03;;;2.40;54.00
69796;BME280;57073;45.650;9.612;2023-12-07T23:05:19;99588.59;;;2.35;54.68
69796;BME280;57073;45.650;9.612;2023-12-07T23:10:20;99590.56;;;2.33;53.29
69796;BME280;57073;45.650;9.612;2023-12-07T23:15:20;99582.25;;;2.36;53.48
69796;BME280;57073;45.650;9.612;2023-12-07T23:20:21;99573.78;;;2.32;51.86
69796;BME280;57073;45.650;9.612;2023-12-07T23:25:21;99557.88;;;2.47;52.42
69796;BME280;57073;45.650;9.612;2023-12-07T23:30:21;99561.44;;;2.63;51.38
69796;BME280;57073;45.650;9.612;2023-12-07T23:35:22;99555.84;;;2.72;49.92
69796;BME280;57073;45.650;9.612;2023-12-07T23:40:22;99556.72;;;2.73;51.92
69796;BME280;57073;45.650;9.612;2023-12-07T23:45:22;99554.28;;;2.63;52.79
69796;BME280;57073;45.650;9.612;2023-12-07T23:50:23;99547.78;;;2.66;52.27
69796;BME280;57073;45.650;9.612;2023-12-07T23:55:23;99534.38;;;2.74;51.91
